createdAt,value
2019-01-21T00:02:12.369Z,95.70
2019-01-21T00:04:43.007Z,95.80
2019-01-21T00:07:13.696Z,95.80
2019-01-21T00:09:44.573Z,95.80
2019-01-21T00:12:15.287Z,95.80
2019-01-21T00:14:45.974Z,95.80
2019-01-21T00:17:22.289Z,95.90
2019-01-21T00:19:49.139Z,95.90
2019-01-21T00:22:19.869Z,95.90
2019-01-21T00:24:50.685Z,96.00
2019-01-21T00:27:21.341Z,95.90
2019-01-21T00:29:51.967Z,95.90
2019-01-21T00:32:22.657Z,96.00
2019-01-21T00:34:53.367Z,96.00
2019-01-21T00:37:24.039Z,96.00
2019-01-21T00:39:55.702Z,96.00
2019-01-21T00:42:26.411Z,96.00
2019-01-21T00:44:57.119Z,96.00
2019-01-21T00:47:30.058Z,95.90
2019-01-21T00:50:00.203Z,96.00
2019-01-21T00:52:30.900Z,96.10
2019-01-21T00:55:01.622Z,96.10
2019-01-21T00:57:32.360Z,96.00
2019-01-21T01:00:03.171Z,96.10
2019-01-21T01:02:34.195Z,96.30
2019-01-21T01:05:06.070Z,96.10
2019-01-21T01:07:37.218Z,96.10
2019-01-21T01:10:09.315Z,96.10
2019-01-21T01:12:40.038Z,96.10
2019-01-21T01:15:13.037Z,96.10
2019-01-21T01:17:43.845Z,96.10
2019-01-21T01:20:17.408Z,96.10
2019-01-21T01:22:48.203Z,96.00
2019-01-21T01:25:18.981Z,96.00
2019-01-21T01:27:49.638Z,96.10
2019-01-21T01:30:20.382Z,96.10
2019-01-21T01:32:51.077Z,95.90
2019-01-21T01:35:21.785Z,95.90
2019-01-21T01:37:52.534Z,95.90
2019-01-21T01:40:23.239Z,95.90
2019-01-21T01:42:53.997Z,96.00
2019-01-21T01:45:26.543Z,96.00
2019-01-21T01:48:06.545Z,96.00
2019-01-21T01:50:37.424Z,96.00
2019-01-21T02:11:33.458Z,96.00
2019-01-21T02:14:04.188Z,96.10
2019-01-21T02:16:34.903Z,96.00
2019-01-21T02:19:05.762Z,96.00
2019-01-21T02:21:38.670Z,96.00
2019-01-21T02:24:09.642Z,96.10
2019-01-21T02:27:18.205Z,96.00
2019-01-21T02:30:45.099Z,96.00
2019-01-21T02:34:08.455Z,96.00
2019-01-21T02:37:06.470Z,96.00
2019-01-21T02:40:07.580Z,96.00
2019-01-21T02:42:47.501Z,96.00
2019-01-21T02:46:08.112Z,96.00
2019-01-21T02:48:55.294Z,96.10
2019-01-21T02:51:49.748Z,96.00
2019-01-21T02:54:51.966Z,96.00
2019-01-21T02:57:45.822Z,96.10
2019-01-21T03:00:36.496Z,96.10
2019-01-21T03:03:31.629Z,96.10
2019-01-21T03:06:51.866Z,96.10
2019-01-21T03:09:58.514Z,96.00
2019-01-21T03:13:17.902Z,96.00
2019-01-21T03:16:23.494Z,96.00
2019-01-21T03:19:30.527Z,95.90
2019-01-21T03:22:38.320Z,96.00
2019-01-21T03:26:01.940Z,96.00
2019-01-21T03:29:07.429Z,96.00
2019-01-21T03:32:25.329Z,96.00
2019-01-21T03:35:32.184Z,96.10
2019-01-21T03:38:39.735Z,96.10
2019-01-21T03:41:48.935Z,96.10
2019-01-21T03:44:50.217Z,96.10
2019-01-21T03:47:37.973Z,96.20
2019-01-21T03:50:52.239Z,96.10
2019-01-21T03:53:43.313Z,96.10
2019-01-21T03:56:23.246Z,96.10
2019-01-21T03:59:26.934Z,96.10
2019-01-21T04:02:44.493Z,96.10
2019-01-21T04:05:42.927Z,96.10
2019-01-21T04:08:54.696Z,96.20
2019-01-21T04:12:04.304Z,96.20
2019-01-21T04:14:54.286Z,96.20
2019-01-21T04:18:14.590Z,96.20
2019-01-21T04:21:33.393Z,96.20
2019-01-21T04:24:48.405Z,96.30
2019-01-21T04:27:51.439Z,96.20
2019-01-21T04:31:07.364Z,96.20
2019-01-21T04:34:10.010Z,96.30
2019-01-21T04:37:13.890Z,96.30
2019-01-21T04:40:21.170Z,96.20
2019-01-21T04:43:47.546Z,96.20
2019-01-21T04:46:50.362Z,96.30
2019-01-21T04:50:10.047Z,96.30
2019-01-21T04:53:16.138Z,96.30
2019-01-21T04:56:30.739Z,96.30
2019-01-21T04:59:31.041Z,96.30
2019-01-21T05:02:23.835Z,96.20
2019-01-21T05:05:47.326Z,96.10
2019-01-21T05:08:57.849Z,96.10
2019-01-21T05:12:11.033Z,96.20
2019-01-21T05:15:18.572Z,96.20
2019-01-21T05:18:26.276Z,96.20
2019-01-21T05:21:28.282Z,96.20
2019-01-21T05:24:28.966Z,96.20
2019-01-21T05:27:18.112Z,96.20
2019-01-21T05:30:24.282Z,96.30
2019-01-21T05:33:30.457Z,96.20
2019-01-21T05:36:32.613Z,96.20
2019-01-21T05:39:52.184Z,96.30
2019-01-21T05:42:51.449Z,96.30
2019-01-21T05:46:18.290Z,96.30
2019-01-21T05:49:39.748Z,96.40
2019-01-21T05:52:43.062Z,96.40
2019-01-21T05:55:48.929Z,96.40
2019-01-21T05:59:05.040Z,96.40
2019-01-21T06:02:17.002Z,96.40
2019-01-21T06:05:28.617Z,96.30
2019-01-21T06:08:31.419Z,96.30
2019-01-21T06:11:14.837Z,96.30
2019-01-21T06:14:28.538Z,96.30
2019-01-21T06:17:31.943Z,96.40
2019-01-21T06:20:52.533Z,96.40
2019-01-21T06:23:58.857Z,96.30
2019-01-21T06:27:02.414Z,96.30
2019-01-21T06:29:59.654Z,96.30
2019-01-21T06:33:00.893Z,96.30
2019-01-21T06:36:05.808Z,96.30
2019-01-21T06:39:20.746Z,96.30
2019-01-21T06:42:34.118Z,96.30
2019-01-21T06:45:33.998Z,96.30
2019-01-21T06:49:04.871Z,96.40
2019-01-21T06:52:19.270Z,96.40
2019-01-21T06:55:12.740Z,96.40
2019-01-21T06:58:29.623Z,96.40
2019-01-21T07:01:35.852Z,96.40
2019-01-21T07:04:26.453Z,96.40
2019-01-21T07:07:31.864Z,96.50
2019-01-21T07:10:24.538Z,96.40
2019-01-21T07:13:30.553Z,96.40
2019-01-21T07:16:50.420Z,96.40
2019-01-21T07:20:01.343Z,96.30
2019-01-21T07:23:26.858Z,96.30
2019-01-21T07:26:23.574Z,96.40
2019-01-21T07:29:19.538Z,96.40
2019-01-21T07:32:21.418Z,96.40
2019-01-21T07:35:17.526Z,96.40
2019-01-21T07:38:15.986Z,96.40
2019-01-21T07:41:22.180Z,96.40
2019-01-21T07:44:38.741Z,96.50
2019-01-21T07:47:46.255Z,96.40
2019-01-21T07:50:45.106Z,96.40
2019-01-21T07:54:03.078Z,96.40
2019-01-21T07:56:51.553Z,96.40
2019-01-21T08:00:09.355Z,96.50
2019-01-21T08:03:39.178Z,96.50
2019-01-21T08:07:06.225Z,96.50
2019-01-21T08:10:11.247Z,96.50
2019-01-21T08:13:24.457Z,96.50
2019-01-21T08:16:39.093Z,96.50
2019-01-21T08:19:41.722Z,96.50
2019-01-21T08:22:50.667Z,96.50
2019-01-21T08:25:41.368Z,96.40
2019-01-21T08:28:48.215Z,96.40
2019-01-21T08:31:31.319Z,96.40
2019-01-21T08:34:47.858Z,96.40
2019-01-21T08:37:38.459Z,96.40
2019-01-21T08:40:39.079Z,96.30
2019-01-21T08:43:52.266Z,96.30
2019-01-21T08:46:48.850Z,96.30
2019-01-21T08:49:42.829Z,96.20
2019-01-21T08:52:46.442Z,96.10
2019-01-21T08:55:51.979Z,96.10
2019-01-21T08:58:44.198Z,96.00
2019-01-21T09:01:53.406Z,95.90
2019-01-21T09:04:52.578Z,95.90
2019-01-21T09:07:57.712Z,95.90
2019-01-21T09:11:01.703Z,95.90
2019-01-21T09:14:28.166Z,95.90
2019-01-21T09:17:12.175Z,95.90
2019-01-21T09:20:14.077Z,95.80
2019-01-21T09:23:11.489Z,95.70
2019-01-21T09:26:09.325Z,95.70
2019-01-21T09:29:16.546Z,95.60
2019-01-21T09:32:28.485Z,95.60
2019-01-21T09:35:22.436Z,95.60
2019-01-21T09:38:21.730Z,95.50
2019-01-21T09:41:33.301Z,95.50
2019-01-21T09:44:24.538Z,95.50
2019-01-21T09:46:53.695Z,95.40
2019-01-21T09:49:22.856Z,95.30
2019-01-21T09:52:10.863Z,95.20
2019-01-21T09:54:42.103Z,95.00
2019-01-21T09:57:23.642Z,95.00
2019-01-21T09:59:56.622Z,94.90
2019-01-21T10:02:37.236Z,94.80
2019-01-21T10:05:11.846Z,94.80
2019-01-21T10:08:08.759Z,94.80
2019-01-21T10:11:20.969Z,94.70
2019-01-21T10:14:31.733Z,94.50
2019-01-21T10:17:15.299Z,94.40
2019-01-21T10:20:37.042Z,94.40
2019-01-21T10:23:53.663Z,94.30
2019-01-21T10:27:00.862Z,94.30
2019-01-21T10:30:40.312Z,94.20
2019-01-21T10:34:09.742Z,94.20
2019-01-21T10:37:24.577Z,94.10
2019-01-21T10:40:28.962Z,94.00
2019-01-21T10:43:41.926Z,93.90
2019-01-21T10:46:36.061Z,93.80
2019-01-21T10:49:58.029Z,93.70
2019-01-21T10:52:57.473Z,93.40
2019-01-21T10:55:53.554Z,93.50
2019-01-21T10:59:01.377Z,93.50
2019-01-21T11:02:25.153Z,93.20
2019-01-21T11:05:32.778Z,93.00
2019-01-21T11:08:32.687Z,93.00
2019-01-21T11:11:40.979Z,92.90
2019-01-21T11:14:47.917Z,92.50
2019-01-21T11:17:59.260Z,92.00
2019-01-21T11:21:05.118Z,91.50
2019-01-21T11:24:08.857Z,91.20
2019-01-21T11:27:26.938Z,90.20
2019-01-21T11:30:22.765Z,86.40
2019-01-21T11:33:42.385Z,77.90
2019-01-21T11:36:37.933Z,73.40
2019-01-21T11:39:51.054Z,67.90
2019-01-21T11:42:42.865Z,67.20
2019-01-21T11:45:30.218Z,64.40
2019-01-21T11:48:16.049Z,64.20
2019-01-21T11:51:02.606Z,62.80
2019-01-21T11:54:22.794Z,63.50
2019-01-21T11:57:11.574Z,64.60
2019-01-21T12:00:15.890Z,65.00
2019-01-21T12:03:06.646Z,62.10
2019-01-21T12:05:54.958Z,58.10
2019-01-21T12:09:00.548Z,56.80
2019-01-21T12:12:05.535Z,57.80
2019-01-21T12:15:08.629Z,56.80
2019-01-21T12:17:58.203Z,54.90
2019-01-21T12:21:05.882Z,55.60
2019-01-21T12:24:00.745Z,55.10
2019-01-21T12:27:39.511Z,56.70
2019-01-21T12:30:31.453Z,55.00
2019-01-21T12:33:26.615Z,56.00
2019-01-21T12:36:42.958Z,56.10
2019-01-21T12:40:12.619Z,57.40
2019-01-21T12:43:33.033Z,57.90
2019-01-21T12:46:44.174Z,54.40
2019-01-21T12:49:51.735Z,53.60
2019-01-21T12:52:59.412Z,52.10
2019-01-21T12:56:05.591Z,50.60
2019-01-21T12:59:03.711Z,49.80
2019-01-21T13:01:49.329Z,49.40
2019-01-21T13:04:30.914Z,50.80
2019-01-21T13:07:28.057Z,51.00
2019-01-21T13:10:58.194Z,51.00
2019-01-21T13:13:43.450Z,51.50
2019-01-21T13:16:46.483Z,51.10
2019-01-21T13:20:05.886Z,51.80
2019-01-21T13:23:16.542Z,50.90
2019-01-21T13:26:18.736Z,50.70
2019-01-21T13:29:07.291Z,50.40
2019-01-21T13:32:00.823Z,52.00
2019-01-21T13:35:01.931Z,52.60
2019-01-21T13:37:58.082Z,52.40
2019-01-21T13:41:06.442Z,50.90
2019-01-21T13:43:58.918Z,51.80
2019-01-21T13:47:11.686Z,51.60
2019-01-21T13:50:06.498Z,52.70
2019-01-21T13:53:19.554Z,54.20
2019-01-21T13:56:18.695Z,57.00
2019-01-21T13:59:48.864Z,57.80
2019-01-21T14:02:45.624Z,57.40
2019-01-21T14:05:50.757Z,57.20
2019-01-21T14:08:57.231Z,55.30
2019-01-21T14:11:54.563Z,56.00
2019-01-21T14:15:00.988Z,56.60
2019-01-21T14:17:53.809Z,56.30
2019-01-21T14:20:48.027Z,56.40
2019-01-21T14:23:46.989Z,57.60
2019-01-21T14:27:07.020Z,59.00
2019-01-21T14:29:58.424Z,60.70
2019-01-21T14:33:21.623Z,62.40
2019-01-21T14:36:35.537Z,60.30
2019-01-21T14:39:50.359Z,60.10
2019-01-21T14:42:43.018Z,61.20
2019-01-21T14:45:54.190Z,61.50
2019-01-21T14:48:47.733Z,62.60
2019-01-21T14:51:53.830Z,64.30
2019-01-21T14:54:48.076Z,65.80
2019-01-21T14:57:45.171Z,63.90
2019-01-21T15:00:50.808Z,65.00
2019-01-21T15:04:14.409Z,68.60
2019-01-21T15:07:16.004Z,71.80
2019-01-21T15:10:29.548Z,75.40
2019-01-21T15:13:49.160Z,77.70
2019-01-21T15:16:37.636Z,79.20
2019-01-21T15:20:22.293Z,81.10
2019-01-21T15:23:38.802Z,81.20
2019-01-21T15:26:38.558Z,83.10
2019-01-21T15:29:35.354Z,83.10
2019-01-21T15:32:32.461Z,83.70
2019-01-21T15:35:38.860Z,84.30
2019-01-21T15:38:59.361Z,84.80
2019-01-21T15:41:49.369Z,85.80
2019-01-21T15:45:06.055Z,86.10
2019-01-21T15:48:11.543Z,86.60
2019-01-21T15:50:52.786Z,87.10
2019-01-21T15:53:55.791Z,87.80
2019-01-21T15:57:05.444Z,87.90
2019-01-21T16:00:13.018Z,88.30
2019-01-21T16:03:11.569Z,89.10
2019-01-21T16:06:07.906Z,89.40
2019-01-21T16:08:57.093Z,89.70
2019-01-21T16:11:54.363Z,90.30
2019-01-21T16:14:39.517Z,90.50
2019-01-21T16:17:54.643Z,90.60
2019-01-21T16:20:56.775Z,90.70
2019-01-21T16:27:02.159Z,91.00
2019-01-21T16:29:42.978Z,91.10
2019-01-21T16:32:51.383Z,91.50
2019-01-21T16:35:58.765Z,91.70
2019-01-21T16:38:54.405Z,91.90
2019-01-21T16:41:31.154Z,92.00
2019-01-21T16:44:05.212Z,92.10
2019-01-21T16:46:36.109Z,92.20
2019-01-21T16:49:07.989Z,92.50
2019-01-21T16:51:39.712Z,92.60
2019-01-21T16:54:10.569Z,92.90
2019-01-21T16:56:41.379Z,93.10
2019-01-21T16:59:12.219Z,93.20
2019-01-21T17:01:43.030Z,93.30
2019-01-21T17:04:16.119Z,93.10
2019-01-21T17:06:46.966Z,93.20
2019-01-21T17:09:17.728Z,93.40
2019-01-21T17:11:51.184Z,93.50
2019-01-21T17:14:22.348Z,93.50
2019-01-21T17:16:55.135Z,93.70
2019-01-21T17:19:25.803Z,93.80
2019-01-21T17:21:56.564Z,94.10
2019-01-21T17:24:27.367Z,94.00
2019-01-21T17:26:58.133Z,94.20
2019-01-21T17:29:28.968Z,94.10
2019-01-21T17:31:59.701Z,94.20
2019-01-21T17:34:32.686Z,94.30
2019-01-21T17:37:03.540Z,94.30
2019-01-21T17:39:34.274Z,94.40
2019-01-21T17:42:05.056Z,94.40
2019-01-21T17:44:36.139Z,94.30
2019-01-21T17:47:07.552Z,94.50
2019-01-21T17:49:38.286Z,94.60
2019-01-21T17:52:09.131Z,94.50
2019-01-21T17:54:39.926Z,94.50
2019-01-21T17:57:12.012Z,94.60
2019-01-21T17:59:42.937Z,94.40
2019-01-21T18:02:15.750Z,94.50
2019-01-21T18:04:46.504Z,94.70
2019-01-21T18:07:17.457Z,94.70
2019-01-21T18:09:48.144Z,94.80
2019-01-21T18:12:18.938Z,94.80
2019-01-21T18:14:49.777Z,94.80
2019-01-21T18:17:23.285Z,94.90
2019-01-21T18:19:55.627Z,94.80
2019-01-21T18:22:26.331Z,94.80
2019-01-21T18:24:58.079Z,94.80
2019-01-21T18:27:28.822Z,94.80
2019-01-21T18:29:59.617Z,94.80
2019-01-21T18:32:30.394Z,94.80
2019-01-21T18:35:01.258Z,94.90
2019-01-21T18:37:32.427Z,95.00
2019-01-21T18:40:03.962Z,95.00
2019-01-21T18:42:35.073Z,95.00
2019-01-21T18:45:06.531Z,95.10
2019-01-21T18:47:37.985Z,95.00
2019-01-21T18:50:09.886Z,95.10
2019-01-21T18:52:41.565Z,95.10
2019-01-21T18:55:15.413Z,95.10
2019-01-21T18:57:46.837Z,95.20
2019-01-21T19:00:20.622Z,95.10
2019-01-21T19:02:56.983Z,95.10
2019-01-21T19:05:32.269Z,95.20
2019-01-21T19:08:03.154Z,95.30
2019-01-21T19:10:34.364Z,95.40
2019-01-21T19:13:05.489Z,95.40
2019-01-21T19:15:36.430Z,95.50
2019-01-21T19:18:09.748Z,95.60
2019-01-21T19:20:40.556Z,95.60
2019-01-21T19:23:11.395Z,95.50
2019-01-21T19:25:42.274Z,95.50
2019-01-21T19:28:14.542Z,95.50
2019-01-21T19:30:45.366Z,95.50
2019-01-21T19:33:16.042Z,95.50
2019-01-21T19:35:46.879Z,95.50
2019-01-21T19:38:19.186Z,95.50
2019-01-21T19:40:49.993Z,95.60
2019-01-21T19:43:36.427Z,95.50
2019-01-21T19:46:07.425Z,95.50
2019-01-21T19:48:38.347Z,95.50
2019-01-21T19:51:14.100Z,95.50
2019-01-21T19:53:45.098Z,95.50
2019-01-21T19:56:19.079Z,95.50
2019-01-21T19:58:50.202Z,95.50
2019-01-21T20:01:31.677Z,95.50
2019-01-21T20:04:02.124Z,95.50
2019-01-21T20:06:35.934Z,95.30
2019-01-21T20:09:08.319Z,95.30
2019-01-21T20:11:41.241Z,95.10
2019-01-21T20:14:12.235Z,95.10
2019-01-21T20:16:43.043Z,95.10
2019-01-21T20:19:16.779Z,95.00
2019-01-21T20:21:47.640Z,95.00
2019-01-21T20:24:19.495Z,95.00
2019-01-21T20:26:50.352Z,95.00
2019-01-21T20:29:23.591Z,95.00
2019-01-21T20:31:54.439Z,94.90
2019-01-21T20:34:25.188Z,94.80
2019-01-21T20:36:56.258Z,94.70
2019-01-21T20:39:27.053Z,94.70
2019-01-21T20:41:57.698Z,94.60
2019-01-21T20:44:28.416Z,94.60
2019-01-21T20:46:59.280Z,94.50
2019-01-21T20:49:29.954Z,94.30
2019-01-21T20:52:00.757Z,94.20
2019-01-21T20:54:31.558Z,94.10
2019-01-21T20:57:02.334Z,94.10
2019-01-21T20:59:33.212Z,94.00
2019-01-21T21:02:03.972Z,93.90
2019-01-21T21:04:34.707Z,93.70
2019-01-21T21:07:05.605Z,93.60
2019-01-21T21:09:36.412Z,93.50
2019-01-21T21:12:07.431Z,93.40
2019-01-21T21:14:38.191Z,93.30
2019-01-21T21:17:09.082Z,93.30
2019-01-21T21:19:39.888Z,93.30
2019-01-21T21:22:12.239Z,93.30
2019-01-21T21:24:45.886Z,93.30
2019-01-21T21:27:16.715Z,93.30
2019-01-21T21:29:47.555Z,93.30
2019-01-21T21:32:18.580Z,93.10
2019-01-21T21:34:49.611Z,93.10
2019-01-21T21:37:20.417Z,93.10
2019-01-21T21:39:51.234Z,93.10
2019-01-21T21:42:22.061Z,93.20
2019-01-21T21:44:52.928Z,93.20
2019-01-21T21:47:23.993Z,93.20
2019-01-21T21:49:54.830Z,93.50
2019-01-21T21:52:27.866Z,93.20
2019-01-21T21:54:58.974Z,93.20
2019-01-21T21:57:29.987Z,93.00
2019-01-21T22:00:00.883Z,92.80
2019-01-21T22:02:31.863Z,92.70
2019-01-21T22:05:03.422Z,92.60
2019-01-21T22:07:34.395Z,92.50
2019-01-21T22:10:06.841Z,92.40
2019-01-21T22:12:37.896Z,92.30
2019-01-21T22:15:12.006Z,92.40
2019-01-21T22:17:42.821Z,92.40
2019-01-21T22:20:16.224Z,92.40
2019-01-21T22:22:47.033Z,92.40
2019-01-21T22:25:18.192Z,92.40
2019-01-21T22:27:49.227Z,92.50
2019-01-21T22:30:22.410Z,92.40
2019-01-21T22:32:53.277Z,92.10
2019-01-21T22:35:24.935Z,92.10
2019-01-21T22:37:55.716Z,92.10
2019-01-21T22:40:26.873Z,92.20
2019-01-21T22:42:57.841Z,92.10
2019-01-21T22:45:28.674Z,92.00
2019-01-21T22:47:59.789Z,92.10
2019-01-21T22:50:30.917Z,92.10
2019-01-21T22:53:01.792Z,92.20
2019-01-21T22:55:32.971Z,92.30
2019-01-21T22:58:03.946Z,92.30
2019-01-21T23:00:53.064Z,92.40
2019-01-21T23:03:24.631Z,92.40
2019-01-21T23:05:55.446Z,92.30
2019-01-21T23:08:26.415Z,92.30
2019-01-21T23:10:57.398Z,92.30
2019-01-21T23:13:28.482Z,92.40
2019-01-21T23:15:59.302Z,92.30
2019-01-21T23:18:31.756Z,92.40
2019-01-21T23:21:02.689Z,92.40
2019-01-21T23:23:33.750Z,92.30
2019-01-21T23:26:05.801Z,92.40
2019-01-21T23:28:36.527Z,92.40
2019-01-21T23:31:07.543Z,92.40
2019-01-21T23:33:38.350Z,92.40
2019-01-21T23:36:09.160Z,92.40
2019-01-21T23:38:40.022Z,92.40
2019-01-21T23:41:11.059Z,92.30
2019-01-21T23:43:41.986Z,92.40
2019-01-21T23:46:13.507Z,92.40
2019-01-21T23:48:44.404Z,92.50
2019-01-21T23:51:15.219Z,92.50
2019-01-21T23:53:46.068Z,92.50
2019-01-21T23:56:16.979Z,92.50
2019-01-21T23:58:47.716Z,92.60
